Time;durP1;ratioP1;P1;durP2;ratioP2;P2;SDS_P1;SDS_P2;PMS_P1;PMS_P2;Temp;Humidity;BMP_temperature;BMP_pressure;BME280_temperature;BME280_humidity;BME280_pressure;Samples;Min_cycle;Max_cycle;Signal;HPM_P1;HPM_P2
2022/07/06 00:01:03;;;;;;;0.40;0.40;;;13.90;99.90;;;;;;5129366;27;20476;-78
2022/07/06 00:03:30;;;;;;;0.30;0.30;;;13.80;99.90;;;;;;5120064;27;20047;-77
2022/07/06 00:05:59;;;;;;;0.30;0.30;;;13.80;99.90;;;;;;5123172;27;20503;-78
2022/07/06 00:08:25;;;;;;;0.38;0.38;;;13.80;99.90;;;;;;5125619;27;20130;-79
2022/07/06 00:10:53;;;;;;;0.35;0.35;;;13.80;99.90;;;;;;5120952;27;20047;-77
2022/07/06 00:13:19;;;;;;;0.30;0.30;;;13.80;99.90;;;;;;5096532;27;20039;-79
2022/07/06 00:15:49;;;;;;;0.30;0.30;;;13.80;99.90;;;;;;5120727;27;20646;-79
2022/07/06 00:18:14;;;;;;;0.40;0.40;;;13.80;99.90;;;;;;5110245;27;20039;-77
2022/07/06 00:20:40;;;;;;;0.40;0.40;;;13.80;99.90;;;;;;5114890;27;20089;-81
2022/07/06 00:23:11;;;;;;;0.30;0.30;;;13.70;99.90;;;;;;5123337;27;20054;-82
2022/07/06 00:25:37;;;;;;;0.32;0.32;;;13.80;99.90;;;;;;5101222;27;20400;-82
2022/07/06 00:28:05;;;;;;;0.40;0.40;;;13.70;99.90;;;;;;5120230;27;20050;-79
2022/07/06 00:30:32;;;;;;;0.30;0.30;;;13.70;99.90;;;;;;5131002;27;20496;-80
2022/07/06 00:32:58;;;;;;;0.25;0.25;;;13.70;99.90;;;;;;5111890;27;20039;-80
2022/07/06 00:35:28;;;;;;;0.45;0.45;;;13.60;99.90;;;;;;5109467;27;20046;-78
2022/07/06 00:37:54;;;;;;;0.40;0.40;;;13.60;99.90;;;;;;5125426;27;20130;-79
2022/07/06 00:40:19;;;;;;;0.30;0.30;;;13.60;99.90;;;;;;5108859;27;20077;-81
2022/07/06 00:42:47;;;;;;;0.40;0.40;;;13.60;99.90;;;;;;5143518;27;20070;-81
2022/07/06 00:45:15;;;;;;;0.35;0.35;;;13.60;99.90;;;;;;5127226;27;20035;-77
2022/07/06 00:47:42;;;;;;;0.50;0.50;;;13.60;99.90;;;;;;5125990;27;20437;-79
2022/07/06 00:50:22;;;;;;;0.30;0.30;;;13.70;99.90;;;;;;5110942;27;20066;-80
2022/07/06 00:52:55;;;;;;;0.30;0.30;;;13.70;99.90;;;;;;5120920;27;20030;-78
2022/07/06 00:55:23;;;;;;;0.30;0.30;;;13.70;99.90;;;;;;5129924;27;20046;-78
2022/07/06 00:57:50;;;;;;;0.30;0.30;;;13.70;99.90;;;;;;5120702;27;20035;-79
2022/07/06 01:00:20;;;;;;;0.22;0.22;;;13.70;99.90;;;;;;5144440;27;20434;-78
2022/07/06 01:02:46;;;;;;;0.40;0.40;;;13.70;99.90;;;;;;5122336;27;20047;-79
2022/07/06 01:05:13;;;;;;;;;;;13.70;99.90;;;;;;5144280;27;20394;-76
2022/07/06 01:07:41;;;;;;;0.35;0.35;;;13.70;99.90;;;;;;5125548;27;20321;-78
2022/07/06 01:10:08;;;;;;;0.40;0.40;;;13.70;99.90;;;;;;5108709;27;20039;-77
2022/07/06 01:12:38;;;;;;;0.60;0.60;;;13.70;99.90;;;;;;5119072;27;20047;-78
2022/07/06 01:15:10;;;;;;;0.60;0.45;;;13.80;99.90;;;;;;5117680;27;20380;-77
2022/07/06 01:17:40;;;;;;;0.30;0.30;;;13.70;99.90;;;;;;5108815;27;20129;-77
2022/07/06 01:20:13;;;;;;;0.40;0.40;;;13.70;99.90;;;;;;5136362;27;20031;-78
2022/07/06 01:22:39;;;;;;;0.30;0.30;;;13.80;99.90;;;;;;5130874;27;20046;-78
2022/07/06 01:25:05;;;;;;;;;;;13.80;99.90;;;;;;5133500;27;20498;-77
2022/07/06 01:27:34;;;;;;;0.35;0.35;;;13.70;99.90;;;;;;5122950;27;19915;-80
2022/07/06 01:30:00;;;;;;;0.30;0.30;;;13.70;99.90;;;;;;5129197;27;20484;-81
2022/07/06 01:32:29;;;;;;;0.45;0.45;;;13.80;99.90;;;;;;5135237;27;20031;-81
2022/07/06 01:34:54;;;;;;;0.30;0.30;;;13.80;99.90;;;;;;5124113;27;20546;-81
2022/07/06 01:37:20;;;;;;;;;;;13.80;99.90;;;;;;5121403;27;20051;-77
2022/07/06 01:39:46;;;;;;;0.30;0.30;;;13.80;99.90;;;;;;5124216;27;20413;-79
2022/07/06 01:42:11;;;;;;;0.35;0.35;;;13.80;99.90;;;;;;5128341;27;20042;-77
2022/07/06 01:44:38;;;;;;;0.38;0.38;;;13.70;99.90;;;;;;5116449;27;20068;-78
2022/07/06 01:47:07;;;;;;;0.20;0.20;;;13.70;99.90;;;;;;5121100;27;20067;-80
2022/07/06 01:49:33;;;;;;;0.20;0.20;;;13.70;99.90;;;;;;5118567;27;20083;-79
2022/07/06 01:51:58;;;;;;;;;;;13.60;99.90;;;;;;5124837;27;20035;-80
2022/07/06 01:54:24;;;;;;;0.30;0.30;;;13.60;99.90;;;;;;5115129;27;19924;-78
2022/07/06 01:56:55;;;;;;;0.30;0.30;;;13.60;99.90;;;;;;5111002;27;20066;-78
2022/07/06 01:59:21;;;;;;;0.45;0.45;;;13.60;99.90;;;;;;5124355;27;20035;-80
2022/07/06 02:01:46;;;;;;;0.40;0.40;;;13.60;99.90;;;;;;5101557;27;20035;-80
2022/07/06 02:04:12;;;;;;;0.35;0.35;;;13.60;99.90;;;;;;5115617;27;20079;-82
2022/07/06 02:06:38;;;;;;;0.30;0.30;;;13.60;99.90;;;;;;5116554;27;20400;-80
2022/07/06 02:09:03;;;;;;;0.30;0.30;;;13.60;99.90;;;;;;5122672;27;20050;-78
2022/07/06 02:11:29;;;;;;;0.30;0.30;;;13.60;99.90;;;;;;5128195;27;20047;-80
2022/07/06 02:13:55;;;;;;;;;;;13.50;99.90;;;;;;5125502;27;20047;-80
2022/07/06 02:16:27;;;;;;;0.30;0.30;;;13.50;99.90;;;;;;5111616;28;19968;-80
2022/07/06 02:18:52;;;;;;;0.40;0.40;;;13.50;99.90;;;;;;5121147;27;20118;-78
2022/07/06 02:21:18;;;;;;;0.38;0.38;;;13.40;99.90;;;;;;5098395;27;20035;-82
2022/07/06 02:23:44;;;;;;;0.30;0.30;;;13.40;99.90;;;;;;5122790;27;20036;-78
2022/07/06 02:26:09;;;;;;;0.50;0.50;;;13.30;99.90;;;;;;5119553;27;20089;-78
2022/07/06 02:28:35;;;;;;;0.40;0.40;;;13.20;99.90;;;;;;5105097;27;20046;-80
2022/07/06 02:31:06;;;;;;;0.30;0.30;;;13.10;99.90;;;;;;5113887;27;20046;-77
2022/07/06 02:33:32;;;;;;;0.30;0.30;;;13.00;99.90;;;;;;5101192;28;20393;-78
2022/07/06 02:35:58;;;;;;;0.30;0.30;;;12.90;99.90;;;;;;5107187;28;20160;-78
2022/07/06 02:38:26;;;;;;;0.40;0.40;;;12.70;99.90;;;;;;5117852;28;20080;-81
2022/07/06 02:40:52;;;;;;;0.50;0.50;;;12.60;99.90;;;;;;5104137;28;20040;-80
2022/07/06 02:43:19;;;;;;;0.47;0.47;;;12.50;99.90;;;;;;5104637;28;20043;-81
2022/07/06 02:45:45;;;;;;;0.40;0.40;;;12.50;99.90;;;;;;5124345;28;20063;-80
2022/07/06 02:48:10;;;;;;;0.30;0.30;;;12.40;99.90;;;;;;5113077;28;20492;-81
2022/07/06 02:50:36;;;;;;;0.40;0.40;;;12.40;99.90;;;;;;5128820;28;20114;-80
2022/07/06 02:53:02;;;;;;;0.40;0.40;;;12.30;99.90;;;;;;5113743;28;20506;-77
2022/07/06 02:55:28;;;;;;;0.30;0.30;;;12.30;99.90;;;;;;5117724;28;20038;-78
2022/07/06 02:57:54;;;;;;;0.40;0.40;;;12.20;99.90;;;;;;5107904;28;20416;-78
2022/07/06 03:00:20;;;;;;;0.60;0.60;;;12.10;99.90;;;;;;5112258;28;20035;-78
2022/07/06 03:02:45;;;;;;;0.40;0.40;;;12.10;99.90;;;;;;5115169;28;20050;-78
2022/07/06 03:05:11;;;;;;;0.40;0.40;;;12.00;99.90;;;;;;5118039;28;20378;-80
2022/07/06 03:07:37;;;;;;;0.25;0.25;;;11.90;99.90;;;;;;5124750;28;20045;-79
2022/07/06 03:10:03;;;;;;;0.40;0.40;;;11.80;99.90;;;;;;5119424;28;20035;-80
2022/07/06 03:12:36;;;;;;;0.40;0.40;;;11.70;99.90;;;;;;5113961;28;20054;-80
2022/07/06 03:15:02;;;;;;;0.30;0.30;;;11.70;99.90;;;;;;5097159;28;20047;-80
2022/07/06 03:17:27;;;;;;;0.40;0.40;;;11.60;99.90;;;;;;5119809;27;20045;-79
2022/07/06 03:19:53;;;;;;;0.40;0.40;;;11.50;99.90;;;;;;5091753;28;20369;-78
2022/07/06 03:22:19;;;;;;;0.40;0.40;;;11.50;99.90;;;;;;5124675;27;20079;-81
2022/07/06 03:24:46;;;;;;;0.40;0.40;;;11.50;99.90;;;;;;5125888;27;20070;-80
2022/07/06 03:27:12;;;;;;;0.45;0.45;;;11.50;99.90;;;;;;5129776;27;20361;-79
2022/07/06 03:29:38;;;;;;;0.43;0.43;;;11.50;99.90;;;;;;5095352;27;20067;-80
2022/07/06 03:32:04;;;;;;;0.40;0.40;;;11.50;99.90;;;;;;5126033;27;20491;-78
2022/07/06 03:34:30;;;;;;;0.32;0.32;;;11.50;99.90;;;;;;5123657;27;20060;-78
2022/07/06 03:36:55;;;;;;;0.57;0.57;;;11.50;99.90;;;;;;5124541;27;20150;-80
2022/07/06 03:39:21;;;;;;;0.50;0.50;;;11.60;99.90;;;;;;5113167;27;20051;-79
2022/07/06 03:41:48;;;;;;;0.50;0.50;;;11.50;99.90;;;;;;5116365;27;20115;-81
2022/07/06 03:44:14;;;;;;;0.55;0.55;;;11.60;99.90;;;;;;5115986;27;20036;-79
2022/07/06 03:46:39;;;;;;;0.40;0.40;;;11.60;99.90;;;;;;5103426;28;20497;-79
2022/07/06 03:49:05;;;;;;;0.40;0.40;;;11.50;99.90;;;;;;5124914;27;20058;-79
2022/07/06 03:51:31;;;;;;;0.40;0.40;;;11.40;99.90;;;;;;5129846;27;20055;-79
2022/07/06 03:53:56;;;;;;;0.50;0.50;;;11.40;99.90;;;;;;5115185;27;20157;-80
2022/07/06 03:56:28;;;;;;;0.50;0.50;;;11.30;99.90;;;;;;5098835;27;20043;-81
2022/07/06 03:58:57;;;;;;;0.40;0.40;;;11.30;99.90;;;;;;5122221;27;20446;-81
2022/07/06 04:01:25;;;;;;;0.38;0.38;;;11.30;99.90;;;;;;5130336;27;20041;-78
2022/07/06 04:03:51;;;;;;;0.50;0.50;;;11.30;99.90;;;;;;5121502;27;20048;-79
2022/07/06 04:06:18;;;;;;;0.30;0.30;;;11.40;99.90;;;;;;5118390;27;20452;-77
2022/07/06 04:08:43;;;;;;;;;;;11.40;99.90;;;;;;5123657;27;20028;-77
2022/07/06 04:11:09;;;;;;;0.40;0.40;;;11.50;99.90;;;;;;5128731;27;19919;-77
2022/07/06 04:13:35;;;;;;;0.43;0.43;;;11.70;99.90;;;;;;5132408;27;20457;-77
2022/07/06 04:16:01;;;;;;;0.30;0.30;;;11.80;99.90;;;;;;5131768;27;20043;-78
2022/07/06 04:18:26;;;;;;;0.30;0.30;;;12.00;99.90;;;;;;5131329;27;20035;-79
2022/07/06 04:20:52;;;;;;;0.30;0.30;;;12.10;99.90;;;;;;5124592;27;20392;-78
2022/07/06 04:23:18;;;;;;;0.50;0.50;;;12.20;99.90;;;;;;5120031;27;20043;-76
2022/07/06 04:25:45;;;;;;;0.43;0.43;;;12.40;99.90;;;;;;5113447;27;20050;-79
2022/07/06 04:28:10;;;;;;;0.38;0.38;;;12.50;99.90;;;;;;5132151;27;20122;-78
2022/07/06 04:30:36;;;;;;;0.70;0.70;;;12.50;99.90;;;;;;5126136;27;20122;-79
2022/07/06 04:33:03;;;;;;;0.32;0.32;;;12.70;99.90;;;;;;5111429;27;20035;-78
2022/07/06 04:35:30;;;;;;;1.05;1.05;;;12.70;99.90;;;;;;5121862;27;20075;-77
2022/07/06 04:37:56;;;;;;;0.40;0.40;;;12.80;99.90;;;;;;5134032;27;20058;-77
2022/07/06 04:40:22;;;;;;;0.32;0.32;;;12.90;99.90;;;;;;5117635;27;20054;-76
2022/07/06 04:42:47;;;;;;;3.20;0.50;;;12.90;99.90;;;;;;5127566;27;20074;-76
2022/07/06 04:45:13;;;;;;;0.40;0.40;;;12.80;99.90;;;;;;5120095;27;20130;-77
2022/07/06 04:47:39;;;;;;;0.40;0.40;;;12.80;99.90;;;;;;5121285;27;20053;-79
2022/07/06 04:50:05;;;;;;;0.30;0.30;;;12.70;99.90;;;;;;5125896;27;20504;-76
2022/07/06 04:52:31;;;;;;;0.40;0.40;;;12.70;99.90;;;;;;5118758;27;20496;-76
2022/07/06 04:55:00;;;;;;;0.20;0.20;;;12.70;99.90;;;;;;5145199;27;20050;-78
2022/07/06 04:57:28;;;;;;;0.30;0.30;;;12.80;99.90;;;;;;5120321;27;20480;-77
2022/07/06 04:59:53;;;;;;;0.40;0.40;;;12.80;99.90;;;;;;5129490;27;20047;-79
2022/07/06 05:02:19;;;;;;;0.40;0.40;;;12.80;99.90;;;;;;5134560;27;20065;-78
2022/07/06 05:04:45;;;;;;;0.40;0.40;;;12.90;99.90;;;;;;5142006;27;20066;-77
2022/07/06 05:07:10;;;;;;;0.30;0.30;;;13.00;99.90;;;;;;5121510;27;20177;-77
2022/07/06 05:09:38;;;;;;;0.30;0.30;;;13.10;99.90;;;;;;5138107;27;20061;-76
2022/07/06 05:12:04;;;;;;;0.35;0.35;;;13.20;99.90;;;;;;5101792;27;20047;-76
2022/07/06 05:14:30;;;;;;;;;;;13.30;99.90;;;;;;5111198;27;20396;-79
2022/07/06 05:16:56;;;;;;;0.30;0.30;;;13.40;99.90;;;;;;5124765;27;19919;-77
2022/07/06 05:19:21;;;;;;;0.30;0.30;;;13.60;99.90;;;;;;5122117;27;20105;-77
2022/07/06 05:21:47;;;;;;;0.40;0.40;;;13.70;99.90;;;;;;5109691;27;20049;-76
2022/07/06 05:24:15;;;;;;;0.20;0.20;;;13.80;99.90;;;;;;5122120;27;20441;-79
2022/07/06 05:26:41;;;;;;;0.30;0.30;;;13.90;99.90;;;;;;5104644;27;20149;-78
2022/07/06 05:29:07;;;;;;;0.20;0.20;;;14.10;99.90;;;;;;5144431;27;20110;-79
2022/07/06 05:31:33;;;;;;;0.30;0.30;;;14.20;99.90;;;;;;5119905;27;20050;-79
2022/07/06 05:33:59;;;;;;;0.28;0.28;;;14.40;99.90;;;;;;5123610;27;20122;-78
2022/07/06 05:36:24;;;;;;;;;;;14.50;99.90;;;;;;5125272;27;20126;-78
2022/07/06 05:38:53;;;;;;;0.40;0.40;;;14.60;99.90;;;;;;5115825;27;19966;-76
2022/07/06 05:41:19;;;;;;;0.30;0.30;;;14.70;99.90;;;;;;5124756;27;20069;-75
2022/07/06 05:43:45;;;;;;;0.38;0.38;;;14.70;99.90;;;;;;5119552;27;20305;-76
2022/07/06 05:46:10;;;;;;;0.28;0.28;;;14.70;99.90;;;;;;5118999;27;20042;-77
2022/07/06 05:51:20;;;;;;;0.40;0.40;;;14.60;99.90;;;;;;5128070;27;20058;-76
2022/07/06 05:53:47;;;;;;;0.30;0.30;;;14.50;99.90;;;;;;5133137;27;20039;-79
2022/07/06 05:56:12;;;;;;;0.50;0.50;;;14.40;99.90;;;;;;5099329;27;20042;-77
2022/07/06 05:58:40;;;;;;;0.30;0.30;;;14.30;99.90;;;;;;5107448;27;20454;-77
2022/07/06 06:01:08;;;;;;;0.40;0.40;;;14.30;99.90;;;;;;5141196;27;20586;-78
2022/07/06 06:03:34;;;;;;;0.30;0.30;;;14.30;99.90;;;;;;5117016;27;20035;-78
2022/07/06 06:06:00;;;;;;;0.30;0.30;;;14.30;99.90;;;;;;5128263;27;20136;-76
2022/07/06 06:08:26;;;;;;;0.20;0.20;;;14.40;99.90;;;;;;5152511;27;20408;-80
2022/07/06 06:10:52;;;;;;;0.40;0.40;;;14.50;99.90;;;;;;5117833;27;20066;-79
2022/07/06 06:13:18;;;;;;;0.40;0.40;;;14.70;99.90;;;;;;5103921;27;20054;-79
2022/07/06 06:15:44;;;;;;;0.30;0.30;;;14.90;99.90;;;;;;5116128;27;20368;-78
2022/07/06 06:18:10;;;;;;;;;;;15.00;99.90;;;;;;5125700;27;20064;-76
2022/07/06 06:20:36;;;;;;;0.38;0.38;;;15.20;99.90;;;;;;5105958;27;19926;-77
2022/07/06 06:23:03;;;;;;;;;;;15.20;99.90;;;;;;5120829;27;20054;-76
2022/07/06 06:25:37;;;;;;;;;;;15.20;99.90;;;;;;5106784;27;20008;-79
2022/07/06 06:28:07;;;;;;;0.40;0.40;;;15.20;99.90;;;;;;5122232;27;19921;-79
2022/07/06 06:30:33;;;;;;;0.45;0.45;;;15.20;99.90;;;;;;5132220;27;20042;-79
2022/07/06 06:33:13;;;;;;;0.25;0.25;;;15.10;99.90;;;;;;5122799;27;20141;-79
2022/07/06 06:35:43;;;;;;;0.30;0.30;;;15.10;99.90;;;;;;5114514;27;20602;-78
2022/07/06 06:38:09;;;;;;;0.40;0.40;;;15.10;99.90;;;;;;5117712;27;20051;-79
2022/07/06 06:40:35;;;;;;;0.30;0.30;;;15.00;99.90;;;;;;5107156;27;20048;-76
2022/07/06 06:43:00;;;;;;;0.40;0.40;;;15.00;99.90;;;;;;5093544;27;20066;-78
2022/07/06 06:45:26;;;;;;;0.35;0.35;;;15.00;99.90;;;;;;5103237;27;20057;-77
2022/07/06 06:47:52;;;;;;;;;;;15.10;99.90;;;;;;5122992;27;20047;-78
2022/07/06 06:50:17;;;;;;;0.30;0.30;;;15.40;99.90;;;;;;5137428;27;20354;-78
2022/07/06 06:52:43;;;;;;;;;;;15.80;99.90;;;;;;5139377;27;20508;-78
2022/07/06 06:55:09;;;;;;;0.30;0.30;;;16.20;99.90;;;;;;5103874;27;19922;-77
2022/07/06 06:57:35;;;;;;;;;;;16.30;99.90;;;;;;5124668;27;20081;-80
2022/07/06 07:00:00;;;;;;;0.30;0.30;;;16.30;99.90;;;;;;5122264;27;19920;-78
2022/07/06 07:02:26;;;;;;;0.30;0.30;;;16.40;99.90;;;;;;5105574;27;20118;-78
2022/07/06 07:04:55;;;;;;;0.30;0.30;;;16.50;99.90;;;;;;5144671;27;20049;-80
2022/07/06 07:07:20;;;;;;;;;;;16.60;99.90;;;;;;5102689;27;20043;-77
2022/07/06 07:09:46;;;;;;;0.30;0.30;;;16.90;99.90;;;;;;5112127;27;19997;-79
2022/07/06 07:12:12;;;;;;;;;;;17.20;99.90;;;;;;5121814;27;20126;-76
2022/07/06 07:14:38;;;;;;;0.30;0.30;;;17.10;99.90;;;;;;5102912;27;19919;-79
2022/07/06 07:17:05;;;;;;;;;;;17.20;99.90;;;;;;5082808;27;20054;-75
2022/07/06 07:19:31;;;;;;;0.40;0.40;;;17.10;99.90;;;;;;5123871;27;19915;-78
2022/07/06 07:21:57;;;;;;;;;;;16.80;99.90;;;;;;5118825;27;20068;-78
2022/07/06 07:24:22;;;;;;;0.30;0.30;;;16.70;99.90;;;;;;5130626;27;19963;-80
2022/07/06 07:26:50;;;;;;;;;;;16.50;99.90;;;;;;5110791;27;20046;-77
2022/07/06 07:29:21;;;;;;;0.22;0.22;;;16.40;99.90;;;;;;5126412;27;20373;-79
2022/07/06 07:31:47;;;;;;;0.60;0.60;;;16.30;99.90;;;;;;5144047;27;20038;-77
2022/07/06 07:34:12;;;;;;;;;;;16.20;99.90;;;;;;5126496;27;20147;-80
2022/07/06 07:36:38;;;;;;;0.30;0.30;;;16.10;99.90;;;;;;5115373;27;19926;-78
2022/07/06 07:39:04;;;;;;;;;;;16.10;99.90;;;;;;5134549;27;20043;-77
2022/07/06 07:41:30;;;;;;;0.20;0.20;;;16.10;99.90;;;;;;5105920;27;19915;-77
2022/07/06 07:43:56;;;;;;;;;;;16.50;99.90;;;;;;5143409;27;20474;-74
2022/07/06 07:46:21;;;;;;;0.40;0.40;;;17.00;99.90;;;;;;5119356;27;19919;-75
2022/07/06 07:48:47;;;;;;;;;;;17.40;99.90;;;;;;5137857;27;20373;-76
2022/07/06 07:51:13;;;;;;;0.40;0.40;;;17.50;99.90;;;;;;5127268;27;19997;-76
2022/07/06 07:53:38;;;;;;;;;;;17.50;99.90;;;;;;5129195;27;20548;-78
2022/07/06 07:56:04;;;;;;;0.63;0.63;;;17.40;99.90;;;;;;5126592;27;20439;-75
2022/07/06 07:58:30;;;;;;;;;;;;;;;;;;5139112;27;20047;-78
2022/07/06 08:00:56;;;;;;;0.55;0.55;;;17.70;99.90;;;;;;5130870;27;19922;-77
2022/07/06 08:03:21;;;;;;;;;;;17.90;99.90;;;;;;5123938;27;20098;-74
2022/07/06 08:05:48;;;;;;;0.20;0.20;;;18.10;99.90;;;;;;5126946;27;19915;-80
2022/07/06 08:08:14;;;;;;;0.30;0.30;;;18.10;99.90;;;;;;5132004;27;20047;-75
2022/07/06 08:10:40;;;;;;;0.30;0.30;;;18.10;99.90;;;;;;5135160;27;20049;-76
2022/07/06 08:13:07;;;;;;;;;;;18.00;99.90;;;;;;5139712;27;20047;-75
2022/07/06 08:15:33;;;;;;;0.30;0.30;;;17.90;99.90;;;;;;5129628;27;19921;-76
2022/07/06 08:17:59;;;;;;;0.30;0.30;;;17.80;99.90;;;;;;5119216;27;20123;-75
2022/07/06 08:20:25;;;;;;;;;;;17.70;99.90;;;;;;5128873;27;20089;-76
2022/07/06 08:22:51;;;;;;;0.30;0.30;;;17.60;99.90;;;;;;5116054;27;19919;-77
2022/07/06 08:25:17;;;;;;;;;;;17.60;99.90;;;;;;5128984;27;20122;-77
2022/07/06 08:27:43;;;;;;;0.30;0.30;;;17.70;99.90;;;;;;5119318;27;19940;-76
2022/07/06 08:30:10;;;;;;;0.30;0.30;;;17.80;99.90;;;;;;5134539;27;20039;-76
2022/07/06 08:32:41;;;;;;;3.30;1.95;;;18.00;99.90;;;;;;5112023;27;20045;-76
2022/07/06 08:35:07;;;;;;;0.30;0.30;;;18.20;99.90;;;;;;5118811;27;20043;-76
2022/07/06 08:37:33;;;;;;;0.82;0.82;;;18.30;99.90;;;;;;5126903;27;20078;-76
2022/07/06 08:39:59;;;;;;;;;;;18.30;99.90;;;;;;5115617;27;20077;-77
2022/07/06 08:42:33;;;;;;;0.30;0.30;;;18.30;99.90;;;;;;5152525;27;20294;-78
2022/07/06 08:45:01;;;;;;;0.32;0.32;;;18.50;99.90;;;;;;5123296;27;20042;-79
2022/07/06 08:47:29;;;;;;;0.45;0.45;;;18.60;99.90;;;;;;5121150;27;20122;-76
2022/07/06 08:49:55;;;;;;;0.25;0.25;;;18.70;99.90;;;;;;5136056;27;20043;-76
2022/07/06 08:52:23;;;;;;;0.30;0.30;;;18.70;99.90;;;;;;5104184;27;20046;-74
2022/07/06 08:54:49;;;;;;;0.30;0.30;;;18.80;99.90;;;;;;5152957;27;20448;-77
2022/07/06 08:57:14;;;;;;;;;;;18.90;99.90;;;;;;5120413;27;20050;-78
2022/07/06 08:59:46;;;;;;;0.32;0.32;;;18.90;99.90;;;;;;5121590;27;19964;-77
2022/07/06 09:02:18;;;;;;;0.90;0.73;;;18.90;99.90;;;;;;5118767;27;20047;-74
2022/07/06 09:04:46;;;;;;;0.30;0.30;;;18.80;99.90;;;;;;5128092;27;20492;-76
2022/07/06 09:07:12;;;;;;;0.20;0.20;;;18.80;99.90;;;;;;5147273;27;20043;-75
2022/07/06 09:09:37;;;;;;;;;;;18.90;99.90;;;;;;5106418;27;20035;-75
2022/07/06 09:12:04;;;;;;;0.20;0.20;;;18.80;99.90;;;;;;5147239;27;19918;-76
2022/07/06 09:14:30;;;;;;;0.28;0.28;;;18.80;99.90;;;;;;5106683;27;20035;-75
2022/07/06 09:17:06;;;;;;;;;;;18.70;99.90;;;;;;5123859;27;20069;-77
2022/07/06 09:19:34;;;;;;;0.32;0.32;;;18.50;99.90;;;;;;5114664;27;19971;-76
2022/07/06 09:22:00;;;;;;;0.30;0.30;;;18.40;99.90;;;;;;5119091;27;20051;-77
2022/07/06 09:24:26;;;;;;;0.20;0.20;;;18.30;99.90;;;;;;5119730;27;20536;-76
2022/07/06 09:26:57;;;;;;;;;;;18.30;99.90;;;;;;5124046;27;20043;-76
2022/07/06 09:29:31;;;;;;;0.30;0.30;;;18.20;99.90;;;;;;5120778;27;20061;-75
2022/07/06 09:32:01;;;;;;;0.30;0.30;;;18.30;99.90;;;;;;5128623;27;20053;-75
2022/07/06 09:34:41;;;;;;;0.30;0.30;;;18.70;99.90;;;;;;5114374;27;20042;-77
2022/07/06 09:37:08;;;;;;;0.30;0.30;;;19.10;99.90;;;;;;5131230;27;20051;-75
2022/07/06 09:39:33;;;;;;;0.30;0.30;;;19.30;99.90;;;;;;5113175;27;20051;-76
2022/07/06 09:42:00;;;;;;;;;;;19.40;99.90;;;;;;5121216;27;20035;-76
2022/07/06 09:44:34;;;;;;;0.30;0.30;;;19.20;99.90;;;;;;5122543;27;19922;-76
2022/07/06 09:47:02;;;;;;;0.30;0.30;;;19.20;99.90;;;;;;5111492;27;20123;-76
2022/07/06 09:49:28;;;;;;;0.30;0.30;;;19.20;99.90;;;;;;5125993;27;20062;-76
2022/07/06 09:51:58;;;;;;;0.30;0.30;;;19.50;99.90;;;;;;5116508;27;20089;-75
2022/07/06 09:54:24;;;;;;;0.28;0.28;;;19.70;99.90;;;;;;5126680;27;20057;-76
2022/07/06 09:56:51;;;;;;;0.20;0.20;;;19.80;99.90;;;;;;5134469;27;20076;-77
2022/07/06 09:59:19;;;;;;;0.30;0.30;;;19.70;99.90;;;;;;5129069;27;20045;-75
2022/07/06 10:01:45;;;;;;;0.30;0.30;;;19.60;99.90;;;;;;5122863;27;20116;-74
2022/07/06 10:04:12;;;;;;;0.20;0.20;;;19.40;99.90;;;;;;5145289;27;20356;-74
2022/07/06 10:06:39;;;;;;;0.25;0.25;;;19.30;99.90;;;;;;5142484;27;20045;-74
2022/07/06 10:09:07;;;;;;;1.65;0.77;;;19.20;99.90;;;;;;5131124;27;20098;-77
2022/07/06 10:11:38;;;;;;;0.30;0.30;;;19.20;99.90;;;;;;5122825;27;20043;-74
2022/07/06 10:14:07;;;;;;;0.30;0.30;;;19.30;99.90;;;;;;5144764;27;20404;-75
2022/07/06 10:16:36;;;;;;;0.30;0.30;;;19.30;99.90;;;;;;5132826;27;20472;-76
2022/07/06 10:19:03;;;;;;;0.40;0.40;;;19.40;99.90;;;;;;5129341;27;20040;-77
2022/07/06 10:21:30;;;;;;;1.38;0.45;;;19.50;99.90;;;;;;5138554;27;20463;-74
2022/07/06 10:23:59;;;;;;;0.20;0.20;;;19.70;99.90;;;;;;5139593;27;20428;-76
2022/07/06 10:26:26;;;;;;;2.10;1.95;;;19.80;99.90;;;;;;5119890;27;20444;-74
2022/07/06 10:28:52;;;;;;;0.40;0.40;;;19.60;99.90;;;;;;5111815;27;20077;-75
2022/07/06 10:31:20;;;;;;;0.30;0.30;;;19.50;99.90;;;;;;5116405;27;20391;-77
2022/07/06 10:33:47;;;;;;;0.20;0.20;;;19.50;99.90;;;;;;5126585;27;20043;-75
2022/07/06 10:36:13;;;;;;;0.25;0.25;;;19.70;99.90;;;;;;5130005;27;20505;-77
2022/07/06 10:38:40;;;;;;;0.30;0.30;;;19.60;99.90;;;;;;5119321;27;20063;-74
2022/07/06 10:41:09;;;;;;;0.40;0.40;;;19.60;99.90;;;;;;5131492;27;20082;-76
2022/07/06 10:43:37;;;;;;;0.28;0.28;;;19.70;99.90;;;;;;5119871;27;20053;-77
2022/07/06 10:46:11;;;;;;;0.40;0.40;;;19.70;99.90;;;;;;5115418;27;20111;-77
2022/07/06 10:48:42;;;;;;;0.35;0.35;;;19.80;99.90;;;;;;5145826;27;20441;-78
2022/07/06 10:51:08;;;;;;;0.25;0.25;;;20.10;99.90;;;;;;5135028;27;20035;-75
2022/07/06 10:53:37;;;;;;;0.40;0.40;;;20.40;99.90;;;;;;5103171;27;20043;-78
2022/07/06 10:56:09;;;;;;;0.30;0.30;;;20.60;99.90;;;;;;5100208;27;20096;-77
2022/07/06 10:58:48;;;;;;;0.20;0.20;;;20.70;99.90;;;;;;5118987;27;20077;-77
2022/07/06 11:01:15;;;;;;;0.30;0.30;;;20.70;99.90;;;;;;5115799;27;20054;-77
2022/07/06 11:03:42;;;;;;;0.20;0.20;;;20.70;99.90;;;;;;5120402;27;20065;-77
2022/07/06 11:06:12;;;;;;;0.20;0.20;;;20.40;99.90;;;;;;5113361;27;20047;-77
2022/07/06 11:08:51;;;;;;;0.30;0.30;;;20.30;99.90;;;;;;5105521;27;20444;-77
2022/07/06 11:11:22;;;;;;;0.28;0.28;;;20.30;99.90;;;;;;5139646;27;20047;-77
2022/07/06 11:14:13;;;;;;;0.45;0.40;;;20.40;99.90;;;;;;5128926;27;20059;-77
2022/07/06 11:17:00;;;;;;;0.30;0.30;;;20.60;99.90;;;;;;5115422;27;20108;-78
2022/07/06 11:19:26;;;;;;;0.30;0.30;;;20.90;99.90;;;;;;5134971;27;20043;-76
2022/07/06 11:21:58;;;;;;;;;;;21.00;98.50;;;;;;5097225;27;20068;-76
2022/07/06 11:24:33;;;;;;;0.30;0.30;;;21.00;97.80;;;;;;5099177;28;19919;-77
2022/07/06 11:27:00;;;;;;;0.30;0.30;;;21.00;97.40;;;;;;5138703;27;20042;-76
2022/07/06 11:29:27;;;;;;;0.70;0.70;;;20.90;97.50;;;;;;5130551;27;20042;-77
2022/07/06 11:32:03;;;;;;;0.70;0.40;;;20.90;97.60;;;;;;5128984;28;20122;-75
2022/07/06 11:34:31;;;;;;;0.20;0.20;;;21.00;95.80;;;;;;5108660;27;20047;-78
2022/07/06 11:37:00;;;;;;;0.30;0.30;;;21.00;94.70;;;;;;5117273;28;20039;-76
2022/07/06 11:39:34;;;;;;;0.35;0.35;;;20.80;95.40;;;;;;5118128;27;20051;-76
2022/07/06 11:42:04;;;;;;;0.30;0.30;;;20.70;95.10;;;;;;5130057;27;20074;-79
2022/07/06 11:44:30;;;;;;;0.47;0.47;;;20.80;94.80;;;;;;5120618;27;20042;-76
2022/07/06 11:46:59;;;;;;;0.30;0.30;;;21.00;94.30;;;;;;5123310;27;20052;-74
2022/07/06 11:49:31;;;;;;;0.30;0.30;;;21.30;93.70;;;;;;5128828;27;20368;-77
2022/07/06 11:51:59;;;;;;;0.40;0.40;;;21.40;93.30;;;;;;5096387;28;20067;-76
2022/07/06 11:54:28;;;;;;;0.43;0.43;;;21.60;93.80;;;;;;5106626;27;20036;-77
2022/07/06 11:56:59;;;;;;;0.30;0.30;;;21.80;91.80;;;;;;5113891;27;20043;-76
2022/07/06 11:59:36;;;;;;;0.20;0.20;;;21.70;92.20;;;;;;5125090;27;20078;-76
2022/07/06 12:02:04;;;;;;;0.30;0.30;;;21.80;93.70;;;;;;5122273;27;20110;-74
2022/07/06 12:04:31;;;;;;;0.20;0.20;;;21.90;92.80;;;;;;5118452;27;20035;-75
2022/07/06 12:07:09;;;;;;;0.20;0.20;;;22.00;93.00;;;;;;5121661;27;20051;-76
2022/07/06 12:09:38;;;;;;;0.95;0.90;;;22.10;93.00;;;;;;5122293;27;20046;-77
2022/07/06 12:12:05;;;;;;;0.30;0.30;;;22.20;92.10;;;;;;5129467;27;20082;-74
2022/07/06 12:14:34;;;;;;;1.55;0.52;;;22.10;91.40;;;;;;5111353;27;20070;-76
2022/07/06 12:17:18;;;;;;;0.30;0.30;;;22.00;91.50;;;;;;5128125;27;20051;-77
2022/07/06 12:19:44;;;;;;;0.20;0.20;;;21.90;91.30;;;;;;5121753;27;20040;-78
2022/07/06 12:22:13;;;;;;;0.38;0.38;;;21.80;91.00;;;;;;5133063;27;20066;-75
2022/07/06 12:24:44;;;;;;;0.40;0.40;;;21.80;90.90;;;;;;5118214;27;20043;-78
2022/07/06 12:27:12;;;;;;;0.30;0.30;;;21.80;91.20;;;;;;5114346;27;20043;-76
2022/07/06 12:29:38;;;;;;;0.38;0.38;;;21.70;90.30;;;;;;5122300;27;20097;-77
2022/07/06 12:32:05;;;;;;;0.30;0.30;;;21.50;91.60;;;;;;5104685;28;20500;-74
2022/07/06 12:34:37;;;;;;;0.90;0.90;;;21.20;90.90;;;;;;5095953;28;20121;-77
2022/07/06 12:37:11;;;;;;;0.22;0.22;;;21.20;92.00;;;;;;5131209;27;20044;-77
2022/07/06 12:39:41;;;;;;;0.22;0.22;;;21.20;92.30;;;;;;5124983;27;20130;-76
2022/07/06 12:42:08;;;;;;;0.28;0.28;;;21.50;91.50;;;;;;5115093;27;20059;-78
2022/07/06 12:44:45;;;;;;;0.30;0.30;;;21.70;91.50;;;;;;5115807;27;20051;-76
2022/07/06 12:47:11;;;;;;;0.32;0.32;;;21.60;89.80;;;;;;5125283;27;20088;-75
2022/07/06 12:49:38;;;;;;;0.30;0.30;;;21.40;90.20;;;;;;5110260;27;20391;-77
2022/07/06 12:52:11;;;;;;;0.20;0.20;;;21.20;91.40;;;;;;5101196;27;20042;-78
2022/07/06 12:54:43;;;;;;;0.35;0.35;;;21.10;92.20;;;;;;5094006;27;20050;-74
2022/07/06 12:57:18;;;;;;;0.20;0.20;;;20.90;92.00;;;;;;5122365;27;20035;-77
2022/07/06 13:00:04;;;;;;;0.20;0.20;;;20.70;92.00;;;;;;5104101;27;20047;-75